sensor_id;sensor_type;location;lat;lon;timestamp;temperature;humidity
27803;DHT22;15182;48.174;11.562;2022-08-01T00:00:46;27.60;67.00
27803;DHT22;15182;48.174;11.562;2022-08-01T00:03:17;27.60;67.00
27803;DHT22;15182;48.174;11.562;2022-08-01T00:05:49;27.60;67.10
27803;DHT22;15182;48.174;11.562;2022-08-01T00:08:22;27.60;67.30
27803;DHT22;15182;48.174;11.562;2022-08-01T00:10:54;27.60;68.30
27803;DHT22;15182;48.174;11.562;2022-08-01T00:13:25;27.60;67.50
27803;DHT22;15182;48.174;11.562;2022-08-01T00:15:57;27.50;67.50
27803;DHT22;15182;48.174;11.562;2022-08-01T00:18:28;27.50;67.60
27803;DHT22;15182;48.174;11.562;2022-08-01T00:20:59;27.50;67.60
27803;DHT22;15182;48.174;11.562;2022-08-01T00:23:32;27.50;67.70
27803;DHT22;15182;48.174;11.562;2022-08-01T00:26:04;27.50;67.70
27803;DHT22;15182;48.174;11.562;2022-08-01T00:28:35;27.40;67.70
27803;DHT22;15182;48.174;11.562;2022-08-01T00:31:06;27.50;67.70
27803;DHT22;15182;48.174;11.562;2022-08-01T00:33:38;27.40;67.60
27803;DHT22;15182;48.174;11.562;2022-08-01T00:36:09;27.40;67.60
27803;DHT22;15182;48.174;11.562;2022-08-01T00:38:42;27.40;67.70
27803;DHT22;15182;48.174;11.562;2022-08-01T00:41:13;27.30;67.70
27803;DHT22;15182;48.174;11.562;2022-08-01T00:43:45;27.30;67.80
27803;DHT22;15182;48.174;11.562;2022-08-01T00:46:16;27.30;67.90
27803;DHT22;15182;48.174;11.562;2022-08-01T00:48:48;27.30;68.00
27803;DHT22;15182;48.174;11.562;2022-08-01T00:51:20;27.20;68.00
27803;DHT22;15182;48.174;11.562;2022-08-01T00:53:53;27.20;68.10
27803;DHT22;15182;48.174;11.562;2022-08-01T00:56:26;27.20;68.10
27803;DHT22;15182;48.174;11.562;2022-08-01T00:58:59;27.10;68.10
27803;DHT22;15182;48.174;11.562;2022-08-01T01:01:30;27.10;68.10
27803;DHT22;15182;48.174;11.562;2022-08-01T01:04:03;27.10;68.10
27803;DHT22;15182;48.174;11.562;2022-08-01T01:06:42;27.10;68.10
27803;DHT22;15182;48.174;11.562;2022-08-01T01:09:23;27.00;68.40
27803;DHT22;15182;48.174;11.562;2022-08-01T01:12:02;27.00;68.50
27803;DHT22;15182;48.174;11.562;2022-08-01T01:14:41;27.00;68.50
27803;DHT22;15182;48.174;11.562;2022-08-01T01:17:21;26.90;68.40
27803;DHT22;15182;48.174;11.562;2022-08-01T01:19:56;26.90;68.50
27803;DHT22;15182;48.174;11.562;2022-08-01T01:22:50;26.90;68.50
27803;DHT22;15182;48.174;11.562;2022-08-01T01:25:39;26.90;68.50
27803;DHT22;15182;48.174;11.562;2022-08-01T01:28:29;26.90;68.60
27803;DHT22;15182;48.174;11.562;2022-08-01T01:31:11;26.90;68.60
27803;DHT22;15182;48.174;11.562;2022-08-01T01:33:45;26.80;68.50
27803;DHT22;15182;48.174;11.562;2022-08-01T01:36:18;26.80;68.50
27803;DHT22;15182;48.174;11.562;2022-08-01T01:38:52;26.80;68.60
27803;DHT22;15182;48.174;11.562;2022-08-01T01:41:25;26.80;68.50
27803;DHT22;15182;48.174;11.562;2022-08-01T01:43:57;26.80;68.50
27803;DHT22;15182;48.174;11.562;2022-08-01T01:46:33;26.80;68.50
27803;DHT22;15182;48.174;11.562;2022-08-01T01:49:06;26.80;68.60
27803;DHT22;15182;48.174;11.562;2022-08-01T01:51:39;26.70;68.50
27803;DHT22;15182;48.174;11.562;2022-08-01T01:54:13;26.70;68.60
27803;DHT22;15182;48.174;11.562;2022-08-01T01:56:45;26.60;68.60
27803;DHT22;15182;48.174;11.562;2022-08-01T01:59:24;26.60;68.70
27803;DHT22;15182;48.174;11.562;2022-08-01T02:02:02;26.60;68.90
27803;DHT22;15182;48.174;11.562;2022-08-01T02:04:37;26.60;68.90
27803;DHT22;15182;48.174;11.562;2022-08-01T02:07:14;26.60;68.90
27803;DHT22;15182;48.174;11.562;2022-08-01T02:09:48;26.60;69.90
27803;DHT22;15182;48.174;11.562;2022-08-01T02:12:21;26.50;69.00
27803;DHT22;15182;48.174;11.562;2022-08-01T02:14:54;26.50;68.80
27803;DHT22;15182;48.174;11.562;2022-08-01T02:17:29;26.50;68.90
27803;DHT22;15182;48.174;11.562;2022-08-01T02:20:01;26.50;68.90
27803;DHT22;15182;48.174;11.562;2022-08-01T02:22:36;26.50;68.90
27803;DHT22;15182;48.174;11.562;2022-08-01T02:25:14;26.50;69.00
27803;DHT22;15182;48.174;11.562;2022-08-01T02:27:50;26.40;69.10
27803;DHT22;15182;48.174;11.562;2022-08-01T02:30:25;26.40;69.00
27803;DHT22;15182;48.174;11.562;2022-08-01T02:33:05;26.40;69.00
27803;DHT22;15182;48.174;11.562;2022-08-01T02:35:41;26.40;69.00
27803;DHT22;15182;48.174;11.562;2022-08-01T02:38:14;26.40;68.90
27803;DHT22;15182;48.174;11.562;2022-08-01T02:40:47;26.30;69.70
27803;DHT22;15182;48.174;11.562;2022-08-01T02:43:23;26.30;69.00
27803;DHT22;15182;48.174;11.562;2022-08-01T02:48:25;26.20;69.00
27803;DHT22;15182;48.174;11.562;2022-08-01T02:51:00;26.20;69.30
27803;DHT22;15182;48.174;11.562;2022-08-01T02:53:34;26.20;69.30
27803;DHT22;15182;48.174;11.562;2022-08-01T02:56:08;26.20;69.30
27803;DHT22;15182;48.174;11.562;2022-08-01T02:58:42;26.20;69.30
27803;DHT22;15182;48.174;11.562;2022-08-01T03:01:17;26.10;69.30
27803;DHT22;15182;48.174;11.562;2022-08-01T03:03:50;26.10;69.40
27803;DHT22;15182;48.174;11.562;2022-08-01T03:06:21;26.10;69.40
27803;DHT22;15182;48.174;11.562;2022-08-01T03:08:55;26.10;69.40
27803;DHT22;15182;48.174;11.562;2022-08-01T03:11:29;26.10;69.40
27803;DHT22;15182;48.174;11.562;2022-08-01T03:14:04;26.10;70.30
27803;DHT22;15182;48.174;11.562;2022-08-01T03:16:40;26.00;70.20
27803;DHT22;15182;48.174;11.562;2022-08-01T03:19:15;26.00;69.40
27803;DHT22;15182;48.174;11.562;2022-08-01T03:21:48;26.00;69.40
27803;DHT22;15182;48.174;11.562;2022-08-01T03:24:23;26.00;69.60
27803;DHT22;15182;48.174;11.562;2022-08-01T03:26:56;26.00;69.60
27803;DHT22;15182;48.174;11.562;2022-08-01T03:29:30;25.90;69.50
27803;DHT22;15182;48.174;11.562;2022-08-01T03:32:04;25.90;69.60
27803;DHT22;15182;48.174;11.562;2022-08-01T03:34:39;25.90;69.60
27803;DHT22;15182;48.174;11.562;2022-08-01T03:37:14;25.90;69.70
27803;DHT22;15182;48.174;11.562;2022-08-01T03:39:52;25.80;69.70
27803;DHT22;15182;48.174;11.562;2022-08-01T03:42:31;25.80;69.80
27803;DHT22;15182;48.174;11.562;2022-08-01T03:45:08;25.70;69.70
27803;DHT22;15182;48.174;11.562;2022-08-01T03:47:44;25.70;69.70
27803;DHT22;15182;48.174;11.562;2022-08-01T03:50:22;25.70;69.80
27803;DHT22;15182;48.174;11.562;2022-08-01T03:52:56;25.70;70.00
27803;DHT22;15182;48.174;11.562;2022-08-01T03:55:29;25.60;69.80
27803;DHT22;15182;48.174;11.562;2022-08-01T03:58:02;25.60;70.00
27803;DHT22;15182;48.174;11.562;2022-08-01T04:00:34;25.50;70.90
27803;DHT22;15182;48.174;11.562;2022-08-01T04:03:09;25.60;70.20
27803;DHT22;15182;48.174;11.562;2022-08-01T04:05:43;25.50;70.30
27803;DHT22;15182;48.174;11.562;2022-08-01T04:08:15;25.50;70.40
27803;DHT22;15182;48.174;11.562;2022-08-01T04:10:48;25.50;70.30
27803;DHT22;15182;48.174;11.562;2022-08-01T04:13:19;25.50;70.50
27803;DHT22;15182;48.174;11.562;2022-08-01T04:15:51;25.40;70.40
27803;DHT22;15182;48.174;11.562;2022-08-01T04:18:22;25.40;70.50
27803;DHT22;15182;48.174;11.562;2022-08-01T04:20:55;25.40;70.60
27803;DHT22;15182;48.174;11.562;2022-08-01T04:23:27;25.40;70.70
27803;DHT22;15182;48.174;11.562;2022-08-01T04:26:02;25.40;70.80
27803;DHT22;15182;48.174;11.562;2022-08-01T04:28:34;25.40;70.90
27803;DHT22;15182;48.174;11.562;2022-08-01T04:31:09;25.30;70.90
27803;DHT22;15182;48.174;11.562;2022-08-01T04:33:46;25.30;71.10
27803;DHT22;15182;48.174;11.562;2022-08-01T04:36:23;25.30;71.10
27803;DHT22;15182;48.174;11.562;2022-08-01T04:38:59;25.30;71.20
27803;DHT22;15182;48.174;11.562;2022-08-01T04:41:33;25.30;71.10
27803;DHT22;15182;48.174;11.562;2022-08-01T04:44:03;25.30;71.10
27803;DHT22;15182;48.174;11.562;2022-08-01T04:46:36;25.30;71.10
27803;DHT22;15182;48.174;11.562;2022-08-01T04:49:08;25.30;71.10
27803;DHT22;15182;48.174;11.562;2022-08-01T04:51:55;25.30;71.10
27803;DHT22;15182;48.174;11.562;2022-08-01T04:54:29;25.30;71.60
27803;DHT22;15182;48.174;11.562;2022-08-01T04:57:04;25.30;71.30
27803;DHT22;15182;48.174;11.562;2022-08-01T04:59:40;25.30;71.40
27803;DHT22;15182;48.174;11.562;2022-08-01T05:02:15;25.30;71.40
27803;DHT22;15182;48.174;11.562;2022-08-01T05:04:48;25.30;71.30
27803;DHT22;15182;48.174;11.562;2022-08-01T05:07:22;25.30;71.30
27803;DHT22;15182;48.174;11.562;2022-08-01T05:09:53;25.30;71.40
27803;DHT22;15182;48.174;11.562;2022-08-01T05:12:26;25.30;71.50
27803;DHT22;15182;48.174;11.562;2022-08-01T05:14:59;25.30;71.70
27803;DHT22;15182;48.174;11.562;2022-08-01T05:17:30;25.30;72.60
27803;DHT22;15182;48.174;11.562;2022-08-01T05:20:02;25.40;71.60
27803;DHT22;15182;48.174;11.562;2022-08-01T05:22:36;25.30;71.60
27803;DHT22;15182;48.174;11.562;2022-08-01T05:25:06;25.40;71.80
27803;DHT22;15182;48.174;11.562;2022-08-01T05:27:41;25.40;71.80
27803;DHT22;15182;48.174;11.562;2022-08-01T05:30:17;25.40;71.70
27803;DHT22;15182;48.174;11.562;2022-08-01T05:32:51;25.40;71.80
27803;DHT22;15182;48.174;11.562;2022-08-01T05:35:24;25.40;71.70
27803;DHT22;15182;48.174;11.562;2022-08-01T05:37:56;25.40;71.80
27803;DHT22;15182;48.174;11.562;2022-08-01T05:40:29;25.40;71.90
27803;DHT22;15182;48.174;11.562;2022-08-01T05:43:00;25.50;72.10
27803;DHT22;15182;48.174;11.562;2022-08-01T05:45:32;25.50;71.90
27803;DHT22;15182;48.174;11.562;2022-08-01T05:48:03;25.50;71.80
27803;DHT22;15182;48.174;11.562;2022-08-01T05:50:35;25.60;71.80
27803;DHT22;15182;48.174;11.562;2022-08-01T05:53:07;25.60;71.70
27803;DHT22;15182;48.174;11.562;2022-08-01T05:55:39;25.60;71.80
27803;DHT22;15182;48.174;11.562;2022-08-01T05:58:12;25.60;71.80
27803;DHT22;15182;48.174;11.562;2022-08-01T06:00:45;25.60;71.80
27803;DHT22;15182;48.174;11.562;2022-08-01T06:03:18;25.60;71.70
27803;DHT22;15182;48.174;11.562;2022-08-01T06:05:53;25.60;71.70
27803;DHT22;15182;48.174;11.562;2022-08-01T06:08:25;25.60;71.70
27803;DHT22;15182;48.174;11.562;2022-08-01T06:10:57;25.60;71.80
27803;DHT22;15182;48.174;11.562;2022-08-01T06:13:28;25.60;71.70
27803;DHT22;15182;48.174;11.562;2022-08-01T06:15:59;25.60;71.60
27803;DHT22;15182;48.174;11.562;2022-08-01T06:18:31;25.60;71.50
27803;DHT22;15182;48.174;11.562;2022-08-01T06:21:02;25.60;71.50
27803;DHT22;15182;48.174;11.562;2022-08-01T06:23:35;25.60;71.70
27803;DHT22;15182;48.174;11.562;2022-08-01T06:26:08;25.60;71.70
27803;DHT22;15182;48.174;11.562;2022-08-01T06:28:40;25.70;71.80
27803;DHT22;15182;48.174;11.562;2022-08-01T06:31:12;25.70;71.80
27803;DHT22;15182;48.174;11.562;2022-08-01T06:33:44;25.70;71.80
27803;DHT22;15182;48.174;11.562;2022-08-01T06:36:17;25.70;71.80
27803;DHT22;15182;48.174;11.562;2022-08-01T06:38:50;25.80;72.00
27803;DHT22;15182;48.174;11.562;2022-08-01T06:41:23;25.80;71.90
27803;DHT22;15182;48.174;11.562;2022-08-01T06:43:54;25.90;71.90
27803;DHT22;15182;48.174;11.562;2022-08-01T06:46:29;25.90;71.90
27803;DHT22;15182;48.174;11.562;2022-08-01T06:49:00;26.00;71.90
27803;DHT22;15182;48.174;11.562;2022-08-01T06:51:33;26.00;71.70
27803;DHT22;15182;48.174;11.562;2022-08-01T06:54:06;26.20;71.90
27803;DHT22;15182;48.174;11.562;2022-08-01T06:56:39;26.30;71.80
27803;DHT22;15182;48.174;11.562;2022-08-01T06:59:13;26.40;71.60
27803;DHT22;15182;48.174;11.562;2022-08-01T07:01:46;26.50;71.40
27803;DHT22;15182;48.174;11.562;2022-08-01T07:04:19;26.60;71.40
27803;DHT22;15182;48.174;11.562;2022-08-01T07:06:52;26.70;71.30
27803;DHT22;15182;48.174;11.562;2022-08-01T07:09:24;26.80;71.20
27803;DHT22;15182;48.174;11.562;2022-08-01T07:11:58;27.00;71.10
27803;DHT22;15182;48.174;11.562;2022-08-01T07:14:29;27.20;70.80
27803;DHT22;15182;48.174;11.562;2022-08-01T07:17:02;27.30;70.70
27803;DHT22;15182;48.174;11.562;2022-08-01T07:19:33;27.40;70.40
27803;DHT22;15182;48.174;11.562;2022-08-01T07:22:05;27.50;70.30
27803;DHT22;15182;48.174;11.562;2022-08-01T07:24:37;27.70;70.30
27803;DHT22;15182;48.174;11.562;2022-08-01T07:27:09;27.80;70.20
27803;DHT22;15182;48.174;11.562;2022-08-01T07:29:40;27.80;69.80
27803;DHT22;15182;48.174;11.562;2022-08-01T07:32:12;27.90;69.70
27803;DHT22;15182;48.174;11.562;2022-08-01T07:34:43;28.10;69.60
27803;DHT22;15182;48.174;11.562;2022-08-01T07:37:14;28.20;69.30
27803;DHT22;15182;48.174;11.562;2022-08-01T07:39:47;28.30;69.20
27803;DHT22;15182;48.174;11.562;2022-08-01T07:42:19;28.40;69.40
27803;DHT22;15182;48.174;11.562;2022-08-01T07:44:51;28.50;69.20
27803;DHT22;15182;48.174;11.562;2022-08-01T07:47:25;28.60;69.00
27803;DHT22;15182;48.174;11.562;2022-08-01T07:50:01;28.70;68.60
27803;DHT22;15182;48.174;11.562;2022-08-01T07:52:34;28.80;68.60
27803;DHT22;15182;48.174;11.562;2022-08-01T07:55:10;28.90;68.50
27803;DHT22;15182;48.174;11.562;2022-08-01T07:57:42;29.00;68.40
27803;DHT22;15182;48.174;11.562;2022-08-01T08:00:14;29.10;68.50
27803;DHT22;15182;48.174;11.562;2022-08-01T08:02:46;29.20;68.10
27803;DHT22;15182;48.174;11.562;2022-08-01T08:05:17;29.30;68.00
27803;DHT22;15182;48.174;11.562;2022-08-01T08:07:49;29.40;67.80
27803;DHT22;15182;48.174;11.562;2022-08-01T08:10:22;29.50;68.00
27803;DHT22;15182;48.174;11.562;2022-08-01T08:12:53;29.50;68.60
27803;DHT22;15182;48.174;11.562;2022-08-01T08:15:24;29.60;67.90
27803;DHT22;15182;48.174;11.562;2022-08-01T08:17:56;29.70;67.50
27803;DHT22;15182;48.174;11.562;2022-08-01T08:20:27;29.80;67.90
27803;DHT22;15182;48.174;11.562;2022-08-01T08:22:59;29.80;67.40
27803;DHT22;15182;48.174;11.562;2022-08-01T08:25:52;29.90;67.00
27803;DHT22;15182;48.174;11.562;2022-08-01T08:28:24;30.00;66.50
27803;DHT22;15182;48.174;11.562;2022-08-01T08:30:56;30.00;66.40
27803;DHT22;15182;48.174;11.562;2022-08-01T08:33:27;30.10;66.60
27803;DHT22;15182;48.174;11.562;2022-08-01T08:35:58;30.10;66.40
27803;DHT22;15182;48.174;11.562;2022-08-01T08:38:30;30.10;66.70
27803;DHT22;15182;48.174;11.562;2022-08-01T08:41:02;30.20;66.20
27803;DHT22;15182;48.174;11.562;2022-08-01T08:43:34;30.30;66.20
27803;DHT22;15182;48.174;11.562;2022-08-01T08:46:09;30.30;65.90
27803;DHT22;15182;48.174;11.562;2022-08-01T08:48:43;30.30;66.10
27803;DHT22;15182;48.174;11.562;2022-08-01T08:51:18;30.40;66.00
27803;DHT22;15182;48.174;11.562;2022-08-01T08:53:50;30.50;65.80
27803;DHT22;15182;48.174;11.562;2022-08-01T08:56:25;30.50;65.70
27803;DHT22;15182;48.174;11.562;2022-08-01T08:59:02;30.60;65.70
27803;DHT22;15182;48.174;11.562;2022-08-01T09:01:33;30.70;65.60
27803;DHT22;15182;48.174;11.562;2022-08-01T09:04:05;30.80;65.40
27803;DHT22;15182;48.174;11.562;2022-08-01T09:06:37;30.80;66.20
27803;DHT22;15182;48.174;11.562;2022-08-01T09:09:10;30.90;65.10
27803;DHT22;15182;48.174;11.562;2022-08-01T09:11:43;31.00;65.00
27803;DHT22;15182;48.174;11.562;2022-08-01T09:14:17;31.00;64.60
27803;DHT22;15182;48.174;11.562;2022-08-01T09:17:02;31.10;64.30
27803;DHT22;15182;48.174;11.562;2022-08-01T09:19:39;31.20;64.30
27803;DHT22;15182;48.174;11.562;2022-08-01T09:22:13;31.20;64.70
27803;DHT22;15182;48.174;11.562;2022-08-01T09:25:03;31.30;64.50
27803;DHT22;15182;48.174;11.562;2022-08-01T09:27:39;31.40;63.80
27803;DHT22;15182;48.174;11.562;2022-08-01T09:30:10;31.40;63.60
27803;DHT22;15182;48.174;11.562;2022-08-01T09:32:55;31.50;64.00
27803;DHT22;15182;48.174;11.562;2022-08-01T09:35:29;31.50;63.50
27803;DHT22;15182;48.174;11.562;2022-08-01T09:38:14;31.60;63.50
27803;DHT22;15182;48.174;11.562;2022-08-01T09:40:45;31.70;63.30
27803;DHT22;15182;48.174;11.562;2022-08-01T09:43:20;31.80;63.30
27803;DHT22;15182;48.174;11.562;2022-08-01T09:45:55;31.90;63.10
27803;DHT22;15182;48.174;11.562;2022-08-01T09:48:28;32.00;62.80
27803;DHT22;15182;48.174;11.562;2022-08-01T09:51:01;32.00;62.00
27803;DHT22;15182;48.174;11.562;2022-08-01T09:53:40;32.10;62.50
27803;DHT22;15182;48.174;11.562;2022-08-01T09:56:13;32.20;61.60
27803;DHT22;15182;48.174;11.562;2022-08-01T09:58:55;32.20;61.20
27803;DHT22;15182;48.174;11.562;2022-08-01T10:01:29;32.30;61.90
27803;DHT22;15182;48.174;11.562;2022-08-01T10:04:12;32.40;60.80
27803;DHT22;15182;48.174;11.562;2022-08-01T10:06:47;32.50;60.80
27803;DHT22;15182;48.174;11.562;2022-08-01T10:09:29;32.60;61.70
27803;DHT22;15182;48.174;11.562;2022-08-01T10:12:03;32.60;60.60
27803;DHT22;15182;48.174;11.562;2022-08-01T10:14:38;32.80;60.30
27803;DHT22;15182;48.174;11.562;2022-08-01T10:17:14;32.90;60.10
27803;DHT22;15182;48.174;11.562;2022-08-01T10:19:48;33.00;60.00
27803;DHT22;15182;48.174;11.562;2022-08-01T10:22:24;33.10;60.40
27803;DHT22;15182;48.174;11.562;2022-08-01T10:24:58;33.20;60.00
27803;DHT22;15182;48.174;11.562;2022-08-01T10:27:36;33.30;59.80
27803;DHT22;15182;48.174;11.562;2022-08-01T10:30:11;33.30;59.50
27803;DHT22;15182;48.174;11.562;2022-08-01T10:32:44;33.40;59.40
27803;DHT22;15182;48.174;11.562;2022-08-01T10:35:18;33.50;59.30
27803;DHT22;15182;48.174;11.562;2022-08-01T10:37:50;33.60;59.10
27803;DHT22;15182;48.174;11.562;2022-08-01T10:40:26;33.70;58.90
27803;DHT22;15182;48.174;11.562;2022-08-01T10:42:57;33.80;58.80
27803;DHT22;15182;48.174;11.562;2022-08-01T10:45:31;33.90;58.60
27803;DHT22;15182;48.174;11.562;2022-08-01T10:48:05;34.00;58.30
27803;DHT22;15182;48.174;11.562;2022-08-01T10:50:44;34.10;58.10
27803;DHT22;15182;48.174;11.562;2022-08-01T10:53:18;34.10;57.70
27803;DHT22;15182;48.174;11.562;2022-08-01T10:55:57;34.20;57.60
27803;DHT22;15182;48.174;11.562;2022-08-01T10:58:32;34.30;57.40
27803;DHT22;15182;48.174;11.562;2022-08-01T11:01:20;34.40;57.50
27803;DHT22;15182;48.174;11.562;2022-08-01T11:04:08;34.50;57.50
27803;DHT22;15182;48.174;11.562;2022-08-01T11:06:49;34.60;57.10
27803;DHT22;15182;48.174;11.562;2022-08-01T11:09:38;34.70;56.90
27803;DHT22;15182;48.174;11.562;2022-08-01T11:12:12;34.90;56.90
27803;DHT22;15182;48.174;11.562;2022-08-01T11:15:18;35.00;56.60
27803;DHT22;15182;48.174;11.562;2022-08-01T11:17:56;35.10;56.20
27803;DHT22;15182;48.174;11.562;2022-08-01T11:20:28;35.20;56.10
27803;DHT22;15182;48.174;11.562;2022-08-01T11:23:17;35.20;56.00
27803;DHT22;15182;48.174;11.562;2022-08-01T11:26:21;35.30;56.20
27803;DHT22;15182;48.174;11.562;2022-08-01T11:29:13;35.40;56.30
27803;DHT22;15182;48.174;11.562;2022-08-01T11:31:46;35.50;55.60
27803;DHT22;15182;48.174;11.562;2022-08-01T11:34:19;35.60;56.20
27803;DHT22;15182;48.174;11.562;2022-08-01T11:37:27;35.60;55.10
27803;DHT22;15182;48.174;11.562;2022-08-01T11:40:19;35.60;55.20
27803;DHT22;15182;48.174;11.562;2022-08-01T11:43:17;35.60;55.10
27803;DHT22;15182;48.174;11.562;2022-08-01T11:45:53;35.60;54.70
27803;DHT22;15182;48.174;11.562;2022-08-01T11:48:27;35.60;54.10
27803;DHT22;15182;48.174;11.562;2022-08-01T11:51:00;35.50;54.40
27803;DHT22;15182;48.174;11.562;2022-08-01T11:53:31;35.40;54.30
27803;DHT22;15182;48.174;11.562;2022-08-01T11:56:05;35.30;55.00
27803;DHT22;15182;48.174;11.562;2022-08-01T11:58:36;35.20;54.90
27803;DHT22;15182;48.174;11.562;2022-08-01T12:01:08;35.20;54.80
27803;DHT22;15182;48.174;11.562;2022-08-01T12:03:44;35.20;54.80
27803;DHT22;15182;48.174;11.562;2022-08-01T12:06:29;35.20;54.80
27803;DHT22;15182;48.174;11.562;2022-08-01T12:09:18;35.30;54.40
27803;DHT22;15182;48.174;11.562;2022-08-01T12:11:52;35.40;54.00
27803;DHT22;15182;48.174;11.562;2022-08-01T12:14:23;35.30;54.20
27803;DHT22;15182;48.174;11.562;2022-08-01T12:16:55;35.20;54.10
27803;DHT22;15182;48.174;11.562;2022-08-01T12:19:27;35.10;54.20
27803;DHT22;15182;48.174;11.562;2022-08-01T12:22:08;35.00;53.50
27803;DHT22;15182;48.174;11.562;2022-08-01T12:24:43;35.00;53.60
27803;DHT22;15182;48.174;11.562;2022-08-01T12:27:23;35.00;54.60
27803;DHT22;15182;48.174;11.562;2022-08-01T12:29:57;35.00;53.90
27803;DHT22;15182;48.174;11.562;2022-08-01T12:32:30;35.10;54.10
27803;DHT22;15182;48.174;11.562;2022-08-01T12:35:05;35.20;53.90
27803;DHT22;15182;48.174;11.562;2022-08-01T12:37:41;35.20;53.40
27803;DHT22;15182;48.174;11.562;2022-08-01T12:40:16;35.20;53.10
27803;DHT22;15182;48.174;11.562;2022-08-01T12:42:51;35.00;53.30
27803;DHT22;15182;48.174;11.562;2022-08-01T12:45:26;34.90;53.30
27803;DHT22;15182;48.174;11.562;2022-08-01T12:47:59;34.80;53.40
27803;DHT22;15182;48.174;11.562;2022-08-01T12:50:35;34.80;53.80
27803;DHT22;15182;48.174;11.562;2022-08-01T12:53:11;34.80;53.90
27803;DHT22;15182;48.174;11.562;2022-08-01T12:55:47;34.80;53.60
27803;DHT22;15182;48.174;11.562;2022-08-01T12:58:22;34.90;53.40
27803;DHT22;15182;48.174;11.562;2022-08-01T13:01:04;34.90;53.50
27803;DHT22;15182;48.174;11.562;2022-08-01T13:03:37;35.00;53.00
27803;DHT22;15182;48.174;11.562;2022-08-01T13:06:13;34.90;53.10
27803;DHT22;15182;48.174;11.562;2022-08-01T13:08:46;34.90;52.80
27803;DHT22;15182;48.174;11.562;2022-08-01T13:11:17;34.80;52.90
27803;DHT22;15182;48.174;11.562;2022-08-01T13:13:50;34.60;52.70
27803;DHT22;15182;48.174;11.562;2022-08-01T13:16:23;34.40;52.60
27803;DHT22;15182;48.174;11.562;2022-08-01T13:18:56;34.30;53.00
27803;DHT22;15182;48.174;11.562;2022-08-01T13:21:29;34.10;53.30
27803;DHT22;15182;48.174;11.562;2022-08-01T13:24:03;34.00;53.70
27803;DHT22;15182;48.174;11.562;2022-08-01T13:26:43;33.80;54.50
27803;DHT22;15182;48.174;11.562;2022-08-01T13:29:17;33.70;54.00
27803;DHT22;15182;48.174;11.562;2022-08-01T13:31:51;33.60;54.40
27803;DHT22;15182;48.174;11.562;2022-08-01T13:34:31;33.40;54.30
27803;DHT22;15182;48.174;11.562;2022-08-01T13:37:05;33.30;54.60
27803;DHT22;15182;48.174;11.562;2022-08-01T13:39:37;33.20;55.10
27803;DHT22;15182;48.174;11.562;2022-08-01T13:42:13;33.20;55.60
27803;DHT22;15182;48.174;11.562;2022-08-01T13:44:46;33.10;55.70
27803;DHT22;15182;48.174;11.562;2022-08-01T13:47:18;33.00;55.20
27803;DHT22;15182;48.174;11.562;2022-08-01T13:49:51;33.00;54.90
27803;DHT22;15182;48.174;11.562;2022-08-01T13:52:22;33.00;54.60
27803;DHT22;15182;48.174;11.562;2022-08-01T13:54:55;33.00;54.70
27803;DHT22;15182;48.174;11.562;2022-08-01T13:57:26;32.90;54.40
27803;DHT22;15182;48.174;11.562;2022-08-01T13:59:59;32.90;55.10
27803;DHT22;15182;48.174;11.562;2022-08-01T14:02:40;32.90;54.40
27803;DHT22;15182;48.174;11.562;2022-08-01T14:05:11;32.80;54.30
27803;DHT22;15182;48.174;11.562;2022-08-01T14:07:42;32.80;54.20
27803;DHT22;15182;48.174;11.562;2022-08-01T14:10:15;32.80;54.40
27803;DHT22;15182;48.174;11.562;2022-08-01T14:12:46;32.70;54.50
27803;DHT22;15182;48.174;11.562;2022-08-01T14:15:18;32.70;54.70
27803;DHT22;15182;48.174;11.562;2022-08-01T14:17:49;32.60;55.00
27803;DHT22;15182;48.174;11.562;2022-08-01T14:20:21;32.60;55.00
27803;DHT22;15182;48.174;11.562;2022-08-01T14:22:52;32.60;55.20
27803;DHT22;15182;48.174;11.562;2022-08-01T14:25:25;32.60;55.30
27803;DHT22;15182;48.174;11.562;2022-08-01T14:27:56;32.50;55.40
27803;DHT22;15182;48.174;11.562;2022-08-01T14:30:28;32.40;55.70
27803;DHT22;15182;48.174;11.562;2022-08-01T14:32:59;32.40;56.00
27803;DHT22;15182;48.174;11.562;2022-08-01T14:35:31;32.30;56.10
27803;DHT22;15182;48.174;11.562;2022-08-01T14:38:02;32.30;56.40
27803;DHT22;15182;48.174;11.562;2022-08-01T14:40:35;32.30;56.60
27803;DHT22;15182;48.174;11.562;2022-08-01T14:43:08;32.30;57.00
27803;DHT22;15182;48.174;11.562;2022-08-01T14:45:39;32.30;57.10
27803;DHT22;15182;48.174;11.562;2022-08-01T14:48:10;32.30;57.30
27803;DHT22;15182;48.174;11.562;2022-08-01T14:50:42;32.20;57.30
27803;DHT22;15182;48.174;11.562;2022-08-01T14:53:13;32.20;57.50
27803;DHT22;15182;48.174;11.562;2022-08-01T14:55:46;32.20;57.90
27803;DHT22;15182;48.174;11.562;2022-08-01T14:58:17;32.20;58.00
27803;DHT22;15182;48.174;11.562;2022-08-01T15:00:49;32.20;58.10
27803;DHT22;15182;48.174;11.562;2022-08-01T15:03:22;32.20;58.00
27803;DHT22;15182;48.174;11.562;2022-08-01T15:05:53;32.20;58.00
27803;DHT22;15182;48.174;11.562;2022-08-01T15:08:24;32.10;57.90
27803;DHT22;15182;48.174;11.562;2022-08-01T15:10:57;32.10;57.90
27803;DHT22;15182;48.174;11.562;2022-08-01T15:13:29;32.10;58.00
27803;DHT22;15182;48.174;11.562;2022-08-01T15:16:01;32.00;58.00
27803;DHT22;15182;48.174;11.562;2022-08-01T15:18:32;32.00;58.00
27803;DHT22;15182;48.174;11.562;2022-08-01T15:21:04;32.00;58.00
27803;DHT22;15182;48.174;11.562;2022-08-01T15:23:35;31.90;57.90
27803;DHT22;15182;48.174;11.562;2022-08-01T15:26:08;31.90;59.20
27803;DHT22;15182;48.174;11.562;2022-08-01T15:28:41;31.90;61.10
27803;DHT22;15182;48.174;11.562;2022-08-01T15:31:13;31.80;60.60
27803;DHT22;15182;48.174;11.562;2022-08-01T15:33:44;31.80;61.60
27803;DHT22;15182;48.174;11.562;2022-08-01T15:36:15;31.70;62.60
27803;DHT22;15182;48.174;11.562;2022-08-01T15:38:47;31.60;63.60
27803;DHT22;15182;48.174;11.562;2022-08-01T15:41:19;31.50;63.50
27803;DHT22;15182;48.174;11.562;2022-08-01T15:43:50;31.40;64.30
27803;DHT22;15182;48.174;11.562;2022-08-01T15:46:22;31.30;64.70
27803;DHT22;15182;48.174;11.562;2022-08-01T15:48:53;31.20;65.40
27803;DHT22;15182;48.174;11.562;2022-08-01T15:51:24;31.10;65.60
27803;DHT22;15182;48.174;11.562;2022-08-01T15:53:57;31.00;65.90
27803;DHT22;15182;48.174;11.562;2022-08-01T15:56:31;30.90;65.80
27803;DHT22;15182;48.174;11.562;2022-08-01T15:59:05;30.80;66.00
27803;DHT22;15182;48.174;11.562;2022-08-01T16:01:37;30.80;66.50